sensor_id;sensor_type;location;lat;lon;timestamp;P1;durP1;ratioP1;P2;durP2;ratioP2
50932;SDS011;36921;49.006;9.292;2023-05-07T00:00:08;3.13;;;1.30;;
50932;SDS011;36921;49.006;9.292;2023-05-07T00:02:34;2.08;;;1.45;;
50932;SDS011;36921;49.006;9.292;2023-05-07T00:05:00;5.82;;;1.73;;
50932;SDS011;36921;49.006;9.292;2023-05-07T00:07:27;1.95;;;1.35;;
50932;SDS011;36921;49.006;9.292;2023-05-07T00:09:52;2.40;;;1.65;;
50932;SDS011;36921;49.006;9.292;2023-05-07T00:12:18;3.33;;;1.65;;
50932;SDS011;36921;49.006;9.292;2023-05-07T00:14:43;3.00;;;1.95;;
50932;SDS011;36921;49.006;9.292;2023-05-07T00:17:08;2.83;;;1.90;;
50932;SDS011;36921;49.006;9.292;2023-05-07T00:19:33;3.75;;;1.80;;
50932;SDS011;36921;49.006;9.292;2023-05-07T00:21:59;3.80;;;2.10;;
50932;SDS011;36921;49.006;9.292;2023-05-07T00:24:24;4.18;;;2.10;;
50932;SDS011;36921;49.006;9.292;2023-05-07T00:26:49;4.88;;;2.10;;
50932;SDS011;36921;49.006;9.292;2023-05-07T00:29:15;3.08;;;1.67;;
50932;SDS011;36921;49.006;9.292;2023-05-07T00:31:40;3.17;;;1.85;;
50932;SDS011;36921;49.006;9.292;2023-05-07T00:34:06;4.90;;;1.77;;
50932;SDS011;36921;49.006;9.292;2023-05-07T00:36:31;3.20;;;1.75;;
50932;SDS011;36921;49.006;9.292;2023-05-07T00:38:57;2.90;;;1.85;;
50932;SDS011;36921;49.006;9.292;2023-05-07T00:41:25;4.07;;;2.17;;
50932;SDS011;36921;49.006;9.292;2023-05-07T00:43:51;4.95;;;1.88;;
50932;SDS011;36921;49.006;9.292;2023-05-07T00:46:20;2.28;;;1.45;;
50932;SDS011;36921;49.006;9.292;2023-05-07T00:48:46;6.00;;;2.30;;
50932;SDS011;36921;49.006;9.292;2023-05-07T00:51:12;3.70;;;1.75;;
50932;SDS011;36921;49.006;9.292;2023-05-07T00:53:37;3.00;;;1.77;;
50932;SDS011;36921;49.006;9.292;2023-05-07T00:56:03;3.40;;;1.50;;
50932;SDS011;36921;49.006;9.292;2023-05-07T00:58:31;1.75;;;1.48;;
50932;SDS011;36921;49.006;9.292;2023-05-07T01:00:57;2.92;;;1.42;;
50932;SDS011;36921;49.006;9.292;2023-05-07T01:03:23;4.03;;;1.65;;
50932;SDS011;36921;49.006;9.292;2023-05-07T01:05:48;3.47;;;1.45;;
50932;SDS011;36921;49.006;9.292;2023-05-07T01:08:15;3.25;;;1.50;;
50932;SDS011;36921;49.006;9.292;2023-05-07T01:10:41;2.25;;;1.60;;
50932;SDS011;36921;49.006;9.292;2023-05-07T01:13:11;3.10;;;1.58;;
50932;SDS011;36921;49.006;9.292;2023-05-07T01:15:38;2.55;;;1.73;;
50932;SDS011;36921;49.006;9.292;2023-05-07T01:18:06;3.05;;;1.60;;
50932;SDS011;36921;49.006;9.292;2023-05-07T01:20:31;2.45;;;1.65;;
50932;SDS011;36921;49.006;9.292;2023-05-07T01:22:57;5.05;;;2.65;;
50932;SDS011;36921;49.006;9.292;2023-05-07T01:25:22;2.50;;;1.67;;
50932;SDS011;36921;49.006;9.292;2023-05-07T01:27:48;2.20;;;1.55;;
50932;SDS011;36921;49.006;9.292;2023-05-07T01:30:13;7.20;;;2.05;;
50932;SDS011;36921;49.006;9.292;2023-05-07T01:35:05;3.45;;;1.52;;
50932;SDS011;36921;49.006;9.292;2023-05-07T01:37:32;4.88;;;1.40;;
50932;SDS011;36921;49.006;9.292;2023-05-07T01:39:58;3.92;;;1.40;;
50932;SDS011;36921;49.006;9.292;2023-05-07T01:42:25;2.28;;;1.30;;
50932;SDS011;36921;49.006;9.292;2023-05-07T01:44:51;4.25;;;1.40;;
50932;SDS011;36921;49.006;9.292;2023-05-07T01:47:16;4.25;;;1.70;;
50932;SDS011;36921;49.006;9.292;2023-05-07T01:49:42;4.50;;;1.35;;
50932;SDS011;36921;49.006;9.292;2023-05-07T01:52:08;2.67;;;1.38;;
50932;SDS011;36921;49.006;9.292;2023-05-07T01:54:34;2.35;;;1.40;;
50932;SDS011;36921;49.006;9.292;2023-05-07T01:56:59;2.75;;;1.70;;
50932;SDS011;36921;49.006;9.292;2023-05-07T01:59:25;10.13;;;1.95;;
50932;SDS011;36921;49.006;9.292;2023-05-07T02:01:50;2.70;;;1.90;;
50932;SDS011;36921;49.006;9.292;2023-05-07T02:04:15;3.03;;;1.88;;
50932;SDS011;36921;49.006;9.292;2023-05-07T02:06:41;8.40;;;2.47;;
50932;SDS011;36921;49.006;9.292;2023-05-07T02:09:06;2.88;;;1.55;;
50932;SDS011;36921;49.006;9.292;2023-05-07T02:11:31;3.08;;;1.73;;
50932;SDS011;36921;49.006;9.292;2023-05-07T02:13:56;4.18;;;1.60;;
50932;SDS011;36921;49.006;9.292;2023-05-07T02:16:22;6.88;;;1.70;;
50932;SDS011;36921;49.006;9.292;2023-05-07T02:18:48;3.22;;;1.45;;
50932;SDS011;36921;49.006;9.292;2023-05-07T02:21:13;3.35;;;1.83;;
50932;SDS011;36921;49.006;9.292;2023-05-07T02:23:39;3.20;;;1.88;;
50932;SDS011;36921;49.006;9.292;2023-05-07T02:26:05;2.63;;;2.08;;
50932;SDS011;36921;49.006;9.292;2023-05-07T02:28:30;5.68;;;1.65;;
50932;SDS011;36921;49.006;9.292;2023-05-07T02:30:55;2.85;;;1.48;;
50932;SDS011;36921;49.006;9.292;2023-05-07T02:33:23;2.70;;;1.73;;
50932;SDS011;36921;49.006;9.292;2023-05-07T02:35:48;2.58;;;1.88;;
50932;SDS011;36921;49.006;9.292;2023-05-07T02:38:14;2.13;;;1.50;;
50932;SDS011;36921;49.006;9.292;2023-05-07T02:40:39;2.78;;;1.50;;
50932;SDS011;36921;49.006;9.292;2023-05-07T02:43:04;3.85;;;2.00;;
50932;SDS011;36921;49.006;9.292;2023-05-07T02:45:31;3.10;;;2.00;;
50932;SDS011;36921;49.006;9.292;2023-05-07T02:47:57;3.38;;;2.05;;
50932;SDS011;36921;49.006;9.292;2023-05-07T02:50:22;8.52;;;2.20;;
50932;SDS011;36921;49.006;9.292;2023-05-07T02:52:47;3.70;;;2.22;;
50932;SDS011;36921;49.006;9.292;2023-05-07T02:55:13;2.83;;;2.00;;
50932;SDS011;36921;49.006;9.292;2023-05-07T02:57:39;7.03;;;2.53;;
50932;SDS011;36921;49.006;9.292;2023-05-07T03:00:14;5.25;;;2.47;;
50932;SDS011;36921;49.006;9.292;2023-05-07T03:02:41;3.78;;;2.40;;
50932;SDS011;36921;49.006;9.292;2023-05-07T03:05:06;5.47;;;2.50;;
50932;SDS011;36921;49.006;9.292;2023-05-07T03:07:31;6.55;;;2.60;;
50932;SDS011;36921;49.006;9.292;2023-05-07T03:09:57;4.50;;;2.60;;
50932;SDS011;36921;49.006;9.292;2023-05-07T03:12:22;4.05;;;2.90;;
50932;SDS011;36921;49.006;9.292;2023-05-07T03:14:47;3.72;;;2.50;;
50932;SDS011;36921;49.006;9.292;2023-05-07T03:17:12;5.22;;;3.20;;
50932;SDS011;36921;49.006;9.292;2023-05-07T03:19:38;6.13;;;2.50;;
50932;SDS011;36921;49.006;9.292;2023-05-07T03:22:03;4.78;;;2.95;;
50932;SDS011;36921;49.006;9.292;2023-05-07T03:24:28;4.00;;;2.40;;
50932;SDS011;36921;49.006;9.292;2023-05-07T03:26:53;6.20;;;2.67;;
50932;SDS011;36921;49.006;9.292;2023-05-07T03:29:19;5.03;;;2.60;;
50932;SDS011;36921;49.006;9.292;2023-05-07T03:31:44;4.88;;;2.78;;
50932;SDS011;36921;49.006;9.292;2023-05-07T03:34:10;7.68;;;2.92;;
50932;SDS011;36921;49.006;9.292;2023-05-07T03:36:35;5.72;;;3.00;;
50932;SDS011;36921;49.006;9.292;2023-05-07T03:39:00;8.88;;;2.70;;
50932;SDS011;36921;49.006;9.292;2023-05-07T03:41:26;5.88;;;3.00;;
50932;SDS011;36921;49.006;9.292;2023-05-07T03:43:51;7.13;;;2.97;;
50932;SDS011;36921;49.006;9.292;2023-05-07T03:46:16;3.80;;;2.70;;
50932;SDS011;36921;49.006;9.292;2023-05-07T03:48:41;5.07;;;2.40;;
50932;SDS011;36921;49.006;9.292;2023-05-07T03:51:07;4.63;;;2.15;;
50932;SDS011;36921;49.006;9.292;2023-05-07T03:53:32;3.92;;;2.10;;
50932;SDS011;36921;49.006;9.292;2023-05-07T03:55:57;3.38;;;2.00;;
50932;SDS011;36921;49.006;9.292;2023-05-07T03:58:23;3.83;;;1.75;;
50932;SDS011;36921;49.006;9.292;2023-05-07T04:00:48;3.30;;;1.90;;
50932;SDS011;36921;49.006;9.292;2023-05-07T04:03:13;3.10;;;1.90;;
50932;SDS011;36921;49.006;9.292;2023-05-07T04:05:39;5.18;;;2.10;;
50932;SDS011;36921;49.006;9.292;2023-05-07T04:08:04;3.03;;;1.80;;
50932;SDS011;36921;49.006;9.292;2023-05-07T04:10:30;8.68;;;1.92;;
50932;SDS011;36921;49.006;9.292;2023-05-07T04:12:55;2.42;;;1.63;;
50932;SDS011;36921;49.006;9.292;2023-05-07T04:15:22;3.05;;;2.00;;
50932;SDS011;36921;49.006;9.292;2023-05-07T04:17:48;3.33;;;2.00;;
50932;SDS011;36921;49.006;9.292;2023-05-07T04:20:16;3.20;;;1.92;;
50932;SDS011;36921;49.006;9.292;2023-05-07T04:22:42;4.65;;;2.13;;
50932;SDS011;36921;49.006;9.292;2023-05-07T04:25:08;5.70;;;2.55;;
50932;SDS011;36921;49.006;9.292;2023-05-07T04:27:34;3.15;;;2.10;;
50932;SDS011;36921;49.006;9.292;2023-05-07T04:29:59;5.55;;;2.00;;
50932;SDS011;36921;49.006;9.292;2023-05-07T04:32:25;3.33;;;1.98;;
50932;SDS011;36921;49.006;9.292;2023-05-07T04:34:51;3.10;;;1.65;;
50932;SDS011;36921;49.006;9.292;2023-05-07T04:37:16;2.55;;;1.90;;
50932;SDS011;36921;49.006;9.292;2023-05-07T04:39:42;2.80;;;1.95;;
50932;SDS011;36921;49.006;9.292;2023-05-07T04:42:07;3.45;;;2.13;;
50932;SDS011;36921;49.006;9.292;2023-05-07T04:44:33;2.65;;;1.77;;
50932;SDS011;36921;49.006;9.292;2023-05-07T04:46:59;3.13;;;2.28;;
50932;SDS011;36921;49.006;9.292;2023-05-07T04:49:25;5.07;;;2.05;;
50932;SDS011;36921;49.006;9.292;2023-05-07T04:51:50;3.28;;;1.88;;
50932;SDS011;36921;49.006;9.292;2023-05-07T04:54:15;4.00;;;2.03;;
50932;SDS011;36921;49.006;9.292;2023-05-07T04:56:41;5.03;;;2.38;;
50932;SDS011;36921;49.006;9.292;2023-05-07T04:59:07;3.45;;;2.05;;
50932;SDS011;36921;49.006;9.292;2023-05-07T05:01:32;5.22;;;1.95;;
50932;SDS011;36921;49.006;9.292;2023-05-07T05:03:58;4.05;;;2.20;;
50932;SDS011;36921;49.006;9.292;2023-05-07T05:06:25;4.90;;;1.88;;
50932;SDS011;36921;49.006;9.292;2023-05-07T05:08:50;5.90;;;2.22;;
50932;SDS011;36921;49.006;9.292;2023-05-07T05:11:15;4.65;;;2.47;;
50932;SDS011;36921;49.006;9.292;2023-05-07T05:13:41;7.03;;;1.67;;
50932;SDS011;36921;49.006;9.292;2023-05-07T05:16:06;3.35;;;2.05;;
50932;SDS011;36921;49.006;9.292;2023-05-07T05:18:32;3.72;;;2.40;;
50932;SDS011;36921;49.006;9.292;2023-05-07T05:20:57;3.72;;;2.00;;
50932;SDS011;36921;49.006;9.292;2023-05-07T05:23:22;2.92;;;2.20;;
50932;SDS011;36921;49.006;9.292;2023-05-07T05:25:48;4.50;;;2.00;;
50932;SDS011;36921;49.006;9.292;2023-05-07T05:28:13;4.13;;;2.47;;
50932;SDS011;36921;49.006;9.292;2023-05-07T05:30:38;5.50;;;2.30;;
50932;SDS011;36921;49.006;9.292;2023-05-07T05:33:04;5.90;;;2.38;;
50932;SDS011;36921;49.006;9.292;2023-05-07T05:35:29;5.43;;;2.78;;
50932;SDS011;36921;49.006;9.292;2023-05-07T05:37:55;3.05;;;2.22;;
50932;SDS011;36921;49.006;9.292;2023-05-07T05:40:20;6.05;;;2.80;;
50932;SDS011;36921;49.006;9.292;2023-05-07T05:42:46;12.52;;;2.78;;
50932;SDS011;36921;49.006;9.292;2023-05-07T05:45:11;4.07;;;2.30;;
50932;SDS011;36921;49.006;9.292;2023-05-07T05:47:37;5.80;;;2.58;;
50932;SDS011;36921;49.006;9.292;2023-05-07T05:50:02;3.33;;;2.55;;
50932;SDS011;36921;49.006;9.292;2023-05-07T05:52:28;4.00;;;2.05;;
50932;SDS011;36921;49.006;9.292;2023-05-07T05:54:53;7.28;;;2.50;;
50932;SDS011;36921;49.006;9.292;2023-05-07T05:57:19;6.47;;;2.63;;
50932;SDS011;36921;49.006;9.292;2023-05-07T05:59:45;4.10;;;2.80;;
50932;SDS011;36921;49.006;9.292;2023-05-07T06:02:12;3.65;;;2.63;;
50932;SDS011;36921;49.006;9.292;2023-05-07T06:04:37;4.47;;;2.80;;
50932;SDS011;36921;49.006;9.292;2023-05-07T06:07:03;6.13;;;2.55;;
50932;SDS011;36921;49.006;9.292;2023-05-07T06:09:28;3.22;;;2.70;;
50932;SDS011;36921;49.006;9.292;2023-05-07T06:11:53;2.88;;;2.28;;
50932;SDS011;36921;49.006;9.292;2023-05-07T06:14:19;2.70;;;2.05;;
50932;SDS011;36921;49.006;9.292;2023-05-07T06:16:44;4.55;;;2.13;;
50932;SDS011;36921;49.006;9.292;2023-05-07T06:19:10;5.88;;;2.22;;
50932;SDS011;36921;49.006;9.292;2023-05-07T06:21:35;4.20;;;2.00;;
50932;SDS011;36921;49.006;9.292;2023-05-07T06:24:01;3.22;;;1.85;;
50932;SDS011;36921;49.006;9.292;2023-05-07T06:26:26;2.97;;;1.70;;
50932;SDS011;36921;49.006;9.292;2023-05-07T06:28:51;7.05;;;2.00;;
50932;SDS011;36921;49.006;9.292;2023-05-07T06:31:18;5.50;;;2.00;;
50932;SDS011;36921;49.006;9.292;2023-05-07T06:33:48;2.88;;;1.70;;
50932;SDS011;36921;49.006;9.292;2023-05-07T06:36:14;3.03;;;1.40;;
50932;SDS011;36921;49.006;9.292;2023-05-07T06:38:40;5.50;;;1.15;;
50932;SDS011;36921;49.006;9.292;2023-05-07T06:41:05;2.20;;;1.30;;
50932;SDS011;36921;49.006;9.292;2023-05-07T06:43:31;1.30;;;1.00;;
50932;SDS011;36921;49.006;9.292;2023-05-07T06:45:56;7.75;;;2.10;;
50932;SDS011;36921;49.006;9.292;2023-05-07T06:48:22;3.35;;;1.23;;
50932;SDS011;36921;49.006;9.292;2023-05-07T06:50:47;3.05;;;1.27;;
50932;SDS011;36921;49.006;9.292;2023-05-07T06:53:12;4.32;;;1.17;;
50932;SDS011;36921;49.006;9.292;2023-05-07T06:55:38;3.75;;;1.38;;
50932;SDS011;36921;49.006;9.292;2023-05-07T06:58:03;2.70;;;1.15;;
50932;SDS011;36921;49.006;9.292;2023-05-07T07:00:31;1.90;;;1.20;;
50932;SDS011;36921;49.006;9.292;2023-05-07T07:02:56;1.85;;;1.10;;
50932;SDS011;36921;49.006;9.292;2023-05-07T07:05:22;2.85;;;1.00;;
50932;SDS011;36921;49.006;9.292;2023-05-07T07:07:47;3.20;;;1.10;;
50932;SDS011;36921;49.006;9.292;2023-05-07T07:10:21;2.03;;;1.05;;
50932;SDS011;36921;49.006;9.292;2023-05-07T07:12:49;1.65;;;1.17;;
50932;SDS011;36921;49.006;9.292;2023-05-07T07:15:15;3.90;;;1.15;;
50932;SDS011;36921;49.006;9.292;2023-05-07T07:17:40;1.83;;;1.00;;
50932;SDS011;36921;49.006;9.292;2023-05-07T07:20:06;2.00;;;0.82;;
50932;SDS011;36921;49.006;9.292;2023-05-07T07:22:32;1.67;;;0.88;;
50932;SDS011;36921;49.006;9.292;2023-05-07T07:24:58;2.22;;;1.00;;
50932;SDS011;36921;49.006;9.292;2023-05-07T07:27:23;3.10;;;1.13;;
50932;SDS011;36921;49.006;9.292;2023-05-07T07:29:49;1.70;;;1.27;;
50932;SDS011;36921;49.006;9.292;2023-05-07T07:32:14;5.43;;;1.23;;
50932;SDS011;36921;49.006;9.292;2023-05-07T07:34:40;2.92;;;0.90;;
50932;SDS011;36921;49.006;9.292;2023-05-07T07:37:05;1.40;;;0.85;;
50932;SDS011;36921;49.006;9.292;2023-05-07T07:39:31;1.40;;;0.98;;
50932;SDS011;36921;49.006;9.292;2023-05-07T07:41:57;1.95;;;0.80;;
50932;SDS011;36921;49.006;9.292;2023-05-07T07:44:23;1.48;;;0.93;;
50932;SDS011;36921;49.006;9.292;2023-05-07T07:46:48;1.33;;;0.75;;
50932;SDS011;36921;49.006;9.292;2023-05-07T07:49:14;1.42;;;0.70;;
50932;SDS011;36921;49.006;9.292;2023-05-07T07:51:40;2.35;;;0.90;;
50932;SDS011;36921;49.006;9.292;2023-05-07T07:54:05;5.30;;;0.80;;
50932;SDS011;36921;49.006;9.292;2023-05-07T07:56:32;1.27;;;0.80;;
50932;SDS011;36921;49.006;9.292;2023-05-07T07:58:58;1.17;;;0.52;;
50932;SDS011;36921;49.006;9.292;2023-05-07T08:01:24;1.00;;;0.60;;
50932;SDS011;36921;49.006;9.292;2023-05-07T08:03:50;0.70;;;0.60;;
50932;SDS011;36921;49.006;9.292;2023-05-07T08:06:18;0.65;;;0.50;;
50932;SDS011;36921;49.006;9.292;2023-05-07T08:08:44;3.55;;;0.68;;
50932;SDS011;36921;49.006;9.292;2023-05-07T08:11:09;1.35;;;0.40;;
50932;SDS011;36921;49.006;9.292;2023-05-07T08:13:35;3.72;;;0.60;;
50932;SDS011;36921;49.006;9.292;2023-05-07T08:16:01;3.65;;;1.05;;
50932;SDS011;36921;49.006;9.292;2023-05-07T08:18:27;1.45;;;0.68;;
50932;SDS011;36921;49.006;9.292;2023-05-07T08:20:54;0.95;;;0.50;;
50932;SDS011;36921;49.006;9.292;2023-05-07T08:23:20;1.50;;;0.60;;
50932;SDS011;36921;49.006;9.292;2023-05-07T08:25:46;5.72;;;0.70;;
50932;SDS011;36921;49.006;9.292;2023-05-07T08:28:11;1.50;;;0.70;;
50932;SDS011;36921;49.006;9.292;2023-05-07T08:30:37;1.85;;;0.80;;
50932;SDS011;36921;49.006;9.292;2023-05-07T08:33:02;2.80;;;0.63;;
50932;SDS011;36921;49.006;9.292;2023-05-07T08:35:27;2.17;;;0.75;;
50932;SDS011;36921;49.006;9.292;2023-05-07T08:37:53;0.85;;;0.60;;
50932;SDS011;36921;49.006;9.292;2023-05-07T08:40:19;1.25;;;0.73;;
50932;SDS011;36921;49.006;9.292;2023-05-07T08:42:49;0.95;;;0.60;;
50932;SDS011;36921;49.006;9.292;2023-05-07T08:45:17;1.42;;;0.80;;
50932;SDS011;36921;49.006;9.292;2023-05-07T08:47:46;1.25;;;0.60;;
50932;SDS011;36921;49.006;9.292;2023-05-07T08:50:15;2.55;;;0.88;;
50932;SDS011;36921;49.006;9.292;2023-05-07T08:52:41;2.17;;;0.68;;
50932;SDS011;36921;49.006;9.292;2023-05-07T08:55:07;2.50;;;0.90;;
50932;SDS011;36921;49.006;9.292;2023-05-07T08:57:33;1.02;;;0.68;;
50932;SDS011;36921;49.006;9.292;2023-05-07T08:59:59;1.15;;;1.02;;
50932;SDS011;36921;49.006;9.292;2023-05-07T09:02:25;1.98;;;0.85;;
50932;SDS011;36921;49.006;9.292;2023-05-07T09:04:50;1.52;;;0.90;;
50932;SDS011;36921;49.006;9.292;2023-05-07T09:07:15;2.10;;;1.00;;
50932;SDS011;36921;49.006;9.292;2023-05-07T09:09:41;2.53;;;0.70;;
50932;SDS011;36921;49.006;9.292;2023-05-07T09:12:09;1.17;;;0.73;;
50932;SDS011;36921;49.006;9.292;2023-05-07T09:14:34;0.85;;;0.50;;
50932;SDS011;36921;49.006;9.292;2023-05-07T09:17:00;1.85;;;1.00;;
50932;SDS011;36921;49.006;9.292;2023-05-07T09:19:26;1.35;;;0.70;;
50932;SDS011;36921;49.006;9.292;2023-05-07T09:22:01;2.70;;;0.88;;
50932;SDS011;36921;49.006;9.292;2023-05-07T09:24:29;1.95;;;0.90;;
50932;SDS011;36921;49.006;9.292;2023-05-07T09:26:59;1.35;;;0.90;;
50932;SDS011;36921;49.006;9.292;2023-05-07T09:29:28;2.72;;;1.00;;
50932;SDS011;36921;49.006;9.292;2023-05-07T09:31:55;3.17;;;1.10;;
50932;SDS011;36921;49.006;9.292;2023-05-07T09:34:21;1.08;;;0.80;;
50932;SDS011;36921;49.006;9.292;2023-05-07T09:36:47;0.85;;;0.60;;
50932;SDS011;36921;49.006;9.292;2023-05-07T09:39:12;1.60;;;0.80;;
50932;SDS011;36921;49.006;9.292;2023-05-07T09:41:45;1.00;;;0.60;;
50932;SDS011;36921;49.006;9.292;2023-05-07T09:44:12;2.05;;;1.15;;
50932;SDS011;36921;49.006;9.292;2023-05-07T09:46:39;1.15;;;0.88;;
50932;SDS011;36921;49.006;9.292;2023-05-07T09:49:08;1.17;;;0.80;;
50932;SDS011;36921;49.006;9.292;2023-05-07T09:51:57;2.05;;;0.70;;
50932;SDS011;36921;49.006;9.292;2023-05-07T09:54:24;2.28;;;0.70;;
50932;SDS011;36921;49.006;9.292;2023-05-07T09:56:51;1.15;;;0.60;;
50932;SDS011;36921;49.006;9.292;2023-05-07T09:59:18;1.27;;;0.80;;
50932;SDS011;36921;49.006;9.292;2023-05-07T10:01:44;2.53;;;0.73;;
50932;SDS011;36921;49.006;9.292;2023-05-07T10:04:10;1.10;;;0.80;;
50932;SDS011;36921;49.006;9.292;2023-05-07T10:06:36;1.42;;;0.70;;
50932;SDS011;36921;49.006;9.292;2023-05-07T10:09:03;2.28;;;1.98;;
50932;SDS011;36921;49.006;9.292;2023-05-07T10:11:31;1.60;;;1.20;;
50932;SDS011;36921;49.006;9.292;2023-05-07T10:13:59;2.47;;;1.73;;
50932;SDS011;36921;49.006;9.292;2023-05-07T10:16:27;1.33;;;0.95;;
50932;SDS011;36921;49.006;9.292;2023-05-07T10:18:56;2.92;;;0.70;;
50932;SDS011;36921;49.006;9.292;2023-05-07T10:21:23;2.83;;;0.90;;
50932;SDS011;36921;49.006;9.292;2023-05-07T10:26:50;4.65;;;0.80;;
50932;SDS011;36921;49.006;9.292;2023-05-07T10:34:26;4.82;;;3.88;;
50932;SDS011;36921;49.006;9.292;2023-05-07T10:36:59;3.20;;;1.83;;
50932;SDS011;36921;49.006;9.292;2023-05-07T10:39:25;9.38;;;4.78;;
50932;SDS011;36921;49.006;9.292;2023-05-07T10:41:51;6.22;;;3.95;;
50932;SDS011;36921;49.006;9.292;2023-05-07T10:44:27;16.23;;;13.02;;
50932;SDS011;36921;49.006;9.292;2023-05-07T10:47:03;3.38;;;1.95;;
50932;SDS011;36921;49.006;9.292;2023-05-07T10:49:35;2.90;;;1.65;;
50932;SDS011;36921;49.006;9.292;2023-05-07T10:54:41;2.03;;;0.70;;
50932;SDS011;36921;49.006;9.292;2023-05-07T11:00:00;2.92;;;0.70;;
50932;SDS011;36921;49.006;9.292;2023-05-07T11:05:27;2.75;;;1.30;;
50932;SDS011;36921;49.006;9.292;2023-05-07T11:07:54;1.30;;;0.85;;
50932;SDS011;36921;49.006;9.292;2023-05-07T11:10:23;2.50;;;1.30;;
50932;SDS011;36921;49.006;9.292;2023-05-07T11:13:42;2.00;;;0.73;;
50932;SDS011;36921;49.006;9.292;2023-05-07T11:16:22;0.88;;;0.80;;
50932;SDS011;36921;49.006;9.292;2023-05-07T11:18:49;1.77;;;0.82;;
50932;SDS011;36921;49.006;9.292;2023-05-07T11:21:34;2.58;;;1.00;;
50932;SDS011;36921;49.006;9.292;2023-05-07T11:24:01;1.73;;;0.98;;
50932;SDS011;36921;49.006;9.292;2023-05-07T11:26:29;3.08;;;1.27;;
50932;SDS011;36921;49.006;9.292;2023-05-07T11:28:56;1.48;;;0.88;;
50932;SDS011;36921;49.006;9.292;2023-05-07T11:31:25;1.05;;;0.80;;
50932;SDS011;36921;49.006;9.292;2023-05-07T11:33:53;1.27;;;0.80;;
50932;SDS011;36921;49.006;9.292;2023-05-07T11:36:20;3.78;;;1.42;;
50932;SDS011;36921;49.006;9.292;2023-05-07T11:38:46;2.20;;;1.23;;
50932;SDS011;36921;49.006;9.292;2023-05-07T11:41:12;1.88;;;0.90;;
50932;SDS011;36921;49.006;9.292;2023-05-07T11:43:38;4.32;;;2.05;;
50932;SDS011;36921;49.006;9.292;2023-05-07T11:46:18;2.58;;;1.20;;
50932;SDS011;36921;49.006;9.292;2023-05-07T11:48:45;1.42;;;0.95;;
50932;SDS011;36921;49.006;9.292;2023-05-07T11:51:10;4.70;;;1.40;;
50932;SDS011;36921;49.006;9.292;2023-05-07T11:53:42;13.25;;;4.43;;
50932;SDS011;36921;49.006;9.292;2023-05-07T11:56:08;27.45;;;11.48;;
50932;SDS011;36921;49.006;9.292;2023-05-07T11:58:34;37.17;;;16.27;;
50932;SDS011;36921;49.006;9.292;2023-05-07T12:01:00;37.30;;;19.55;;
50932;SDS011;36921;49.006;9.292;2023-05-07T12:03:25;29.70;;;14.52;;
50932;SDS011;36921;49.006;9.292;2023-05-07T12:05:51;4.63;;;2.15;;
50932;SDS011;36921;49.006;9.292;2023-05-07T12:08:20;2.50;;;1.00;;
50932;SDS011;36921;49.006;9.292;2023-05-07T12:10:48;2.28;;;0.88;;
50932;SDS011;36921;49.006;9.292;2023-05-07T12:13:15;4.70;;;2.30;;
50932;SDS011;36921;49.006;9.292;2023-05-07T12:15:41;1.90;;;1.02;;
50932;SDS011;36921;49.006;9.292;2023-05-07T12:18:07;3.75;;;2.85;;
50932;SDS011;36921;49.006;9.292;2023-05-07T12:20:33;1.92;;;1.00;;
50932;SDS011;36921;49.006;9.292;2023-05-07T12:23:00;1.77;;;0.88;;
50932;SDS011;36921;49.006;9.292;2023-05-07T12:25:29;3.92;;;2.50;;
50932;SDS011;36921;49.006;9.292;2023-05-07T12:27:56;1.52;;;0.90;;
50932;SDS011;36921;49.006;9.292;2023-05-07T12:30:23;1.60;;;0.93;;
50932;SDS011;36921;49.006;9.292;2023-05-07T12:32:52;2.35;;;1.25;;
50932;SDS011;36921;49.006;9.292;2023-05-07T12:35:25;1.55;;;1.10;;
50932;SDS011;36921;49.006;9.292;2023-05-07T12:37:55;1.35;;;0.80;;
50932;SDS011;36921;49.006;9.292;2023-05-07T12:40:21;2.28;;;0.73;;
50932;SDS011;36921;49.006;9.292;2023-05-07T12:42:46;6.38;;;1.40;;
50932;SDS011;36921;49.006;9.292;2023-05-07T12:45:12;3.63;;;0.88;;
50932;SDS011;36921;49.006;9.292;2023-05-07T12:50:09;1.65;;;1.02;;
50932;SDS011;36921;49.006;9.292;2023-05-07T12:52:35;1.17;;;1.00;;
50932;SDS011;36921;49.006;9.292;2023-05-07T12:55:07;2.85;;;0.80;;
50932;SDS011;36921;49.006;9.292;2023-05-07T12:57:39;2.33;;;0.80;;
50932;SDS011;36921;49.006;9.292;2023-05-07T13:00:06;1.50;;;0.80;;
50932;SDS011;36921;49.006;9.292;2023-05-07T13:02:39;1.77;;;0.80;;
50932;SDS011;36921;49.006;9.292;2023-05-07T13:05:06;2.72;;;0.80;;
50932;SDS011;36921;49.006;9.292;2023-05-07T13:07:32;2.05;;;1.00;;
50932;SDS011;36921;49.006;9.292;2023-05-07T13:09:58;1.50;;;0.90;;
50932;SDS011;36921;49.006;9.292;2023-05-07T13:12:23;3.17;;;0.63;;
50932;SDS011;36921;49.006;9.292;2023-05-07T13:14:48;1.90;;;0.90;;
50932;SDS011;36921;49.006;9.292;2023-05-07T13:17:13;2.17;;;0.75;;
50932;SDS011;36921;49.006;9.292;2023-05-07T13:19:40;1.88;;;1.00;;
50932;SDS011;36921;49.006;9.292;2023-05-07T13:22:05;1.48;;;1.02;;
50932;SDS011;36921;49.006;9.292;2023-05-07T13:24:30;1.00;;;0.80;;
50932;SDS011;36921;49.006;9.292;2023-05-07T13:26:56;1.20;;;0.80;;
50932;SDS011;36921;49.006;9.292;2023-05-07T13:29:21;2.60;;;0.90;;
50932;SDS011;36921;49.006;9.292;2023-05-07T13:31:53;1.98;;;1.08;;
50932;SDS011;36921;49.006;9.292;2023-05-07T13:34:19;3.08;;;0.90;;
50932;SDS011;36921;49.006;9.292;2023-05-07T13:36:45;1.85;;;0.85;;
50932;SDS011;36921;49.006;9.292;2023-05-07T13:39:10;1.75;;;0.70;;
50932;SDS011;36921;49.006;9.292;2023-05-07T13:41:35;1.60;;;0.70;;
50932;SDS011;36921;49.006;9.292;2023-05-07T13:44:00;1.88;;;0.88;;
50932;SDS011;36921;49.006;9.292;2023-05-07T13:46:26;4.07;;;1.10;;
50932;SDS011;36921;49.006;9.292;2023-05-07T13:48:51;2.88;;;1.30;;
50932;SDS011;36921;49.006;9.292;2023-05-07T13:51:16;4.18;;;1.20;;
50932;SDS011;36921;49.006;9.292;2023-05-07T13:53:42;4.75;;;1.20;;
50932;SDS011;36921;49.006;9.292;2023-05-07T13:56:07;1.77;;;1.20;;
50932;SDS011;36921;49.006;9.292;2023-05-07T13:58:32;2.15;;;1.05;;
50932;SDS011;36921;49.006;9.292;2023-05-07T14:00:58;4.47;;;1.27;;
50932;SDS011;36921;49.006;9.292;2023-05-07T14:03:23;3.58;;;1.35;;
50932;SDS011;36921;49.006;9.292;2023-05-07T14:05:48;2.15;;;0.93;;
50932;SDS011;36921;49.006;9.292;2023-05-07T14:08:13;4.15;;;1.00;;
50932;SDS011;36921;49.006;9.292;2023-05-07T14:10:39;1.38;;;0.60;;
50932;SDS011;36921;49.006;9.292;2023-05-07T14:13:05;1.83;;;0.98;;
50932;SDS011;36921;49.006;9.292;2023-05-07T14:15:31;0.93;;;0.57;;
50932;SDS011;36921;49.006;9.292;2023-05-07T14:17:57;1.38;;;0.80;;
50932;SDS011;36921;49.006;9.292;2023-05-07T14:20:24;1.33;;;0.82;;
50932;SDS011;36921;49.006;9.292;2023-05-07T14:22:49;1.92;;;0.80;;
50932;SDS011;36921;49.006;9.292;2023-05-07T14:25:15;3.28;;;1.10;;
50932;SDS011;36921;49.006;9.292;2023-05-07T14:27:40;1.13;;;0.85;;
50932;SDS011;36921;49.006;9.292;2023-05-07T14:30:06;2.05;;;1.10;;
50932;SDS011;36921;49.006;9.292;2023-05-07T14:32:32;2.83;;;1.40;;
50932;SDS011;36921;49.006;9.292;2023-05-07T14:34:57;2.47;;;1.50;;
50932;SDS011;36921;49.006;9.292;2023-05-07T14:37:23;3.83;;;1.45;;
50932;SDS011;36921;49.006;9.292;2023-05-07T14:39:49;1.63;;;1.13;;
50932;SDS011;36921;49.006;9.292;2023-05-07T14:42:14;5.28;;;1.25;;
50932;SDS011;36921;49.006;9.292;2023-05-07T14:44:39;2.45;;;1.10;;
50932;SDS011;36921;49.006;9.292;2023-05-07T14:47:06;1.95;;;1.08;;
50932;SDS011;36921;49.006;9.292;2023-05-07T14:49:32;2.60;;;1.17;;
50932;SDS011;36921;49.006;9.292;2023-05-07T14:51:57;2.90;;;1.20;;
50932;SDS011;36921;49.006;9.292;2023-05-07T14:54:24;1.80;;;1.10;;
50932;SDS011;36921;49.006;9.292;2023-05-07T14:56:50;3.25;;;1.27;;
50932;SDS011;36921;49.006;9.292;2023-05-07T14:59:15;2.70;;;1.48;;
50932;SDS011;36921;49.006;9.292;2023-05-07T15:01:43;4.13;;;1.92;;
50932;SDS011;36921;49.006;9.292;2023-05-07T15:04:10;2.88;;;1.83;;